sensor_id;sensor_type;location;lat;lon;timestamp;pressure;altitude;pressure_sealevel;temperature;humidity
80851;BME280;70268;50.292;6.666;2023-07-13T00:01:16;96488.00;;;25.13;43.51
80851;BME280;70268;50.292;6.666;2023-07-13T00:03:45;96484.75;;;25.11;43.21
80851;BME280;70268;50.292;6.666;2023-07-13T00:06:14;96490.25;;;25.10;43.38
80851;BME280;70268;50.292;6.666;2023-07-13T00:08:42;96493.91;;;25.09;43.64
80851;BME280;70268;50.292;6.666;2023-07-13T00:11:11;96495.75;;;25.08;43.71
80851;BME280;70268;50.292;6.666;2023-07-13T00:13:39;96502.06;;;25.07;43.25
80851;BME280;70268;50.292;6.666;2023-07-13T00:16:10;96495.97;;;25.07;43.26
80851;BME280;70268;50.292;6.666;2023-07-13T00:18:42;96495.38;;;25.04;43.34
80851;BME280;70268;50.292;6.666;2023-07-13T00:21:11;96493.75;;;25.03;43.34
80851;BME280;70268;50.292;6.666;2023-07-13T00:23:42;96493.75;;;25.03;43.23
80851;BME280;70268;50.292;6.666;2023-07-13T00:26:11;96489.66;;;25.01;43.29
80851;BME280;70268;50.292;6.666;2023-07-13T00:28:41;96489.88;;;24.99;43.36
80851;BME280;70268;50.292;6.666;2023-07-13T00:31:10;96479.31;;;24.99;42.85
80851;BME280;70268;50.292;6.666;2023-07-13T00:33:39;96476.06;;;24.97;42.84
80851;BME280;70268;50.292;6.666;2023-07-13T00:36:09;96481.34;;;24.97;42.98
80851;BME280;70268;50.292;6.666;2023-07-13T00:38:38;96478.91;;;24.96;43.19
80851;BME280;70268;50.292;6.666;2023-07-13T00:41:08;96476.44;;;24.94;43.01
80851;BME280;70268;50.292;6.666;2023-07-13T00:43:37;96471.56;;;24.91;43.07
80851;BME280;70268;50.292;6.666;2023-07-13T00:46:17;96472.59;;;24.90;42.63
80851;BME280;70268;50.292;6.666;2023-07-13T00:48:47;96466.28;;;24.91;43.01
80851;BME280;70268;50.292;6.666;2023-07-13T00:51:22;96460.38;;;24.89;43.35
80851;BME280;70268;50.292;6.666;2023-07-13T00:53:54;96468.53;;;24.87;43.12
80851;BME280;70268;50.292;6.666;2023-07-13T00:56:25;96469.56;;;24.86;42.68
80851;BME280;70268;50.292;6.666;2023-07-13T00:58:56;96472.41;;;24.85;42.70
80851;BME280;70268;50.292;6.666;2023-07-13T01:01:26;96469.16;;;24.83;43.05
80851;BME280;70268;50.292;6.666;2023-07-13T01:03:54;96465.75;;;24.76;43.16
80851;BME280;70268;50.292;6.666;2023-07-13T01:06:26;96458.59;;;24.76;43.49
80851;BME280;70268;50.292;6.666;2023-07-13T01:08:56;96461.28;;;24.69;43.71
80851;BME280;70268;50.292;6.666;2023-07-13T01:11:27;96469.59;;;24.73;43.82
80851;BME280;70268;50.292;6.666;2023-07-13T01:13:56;96471.44;;;24.66;44.11
80851;BME280;70268;50.292;6.666;2023-07-13T01:16:27;96470.03;;;24.63;44.34
80851;BME280;70268;50.292;6.666;2023-07-13T01:18:56;96471.03;;;24.69;44.58
80851;BME280;70268;50.292;6.666;2023-07-13T01:21:28;96473.06;;;24.67;44.77
80851;BME280;70268;50.292;6.666;2023-07-13T01:23:59;96481.22;;;24.65;44.71
80851;BME280;70268;50.292;6.666;2023-07-13T01:26:29;96476.09;;;24.70;45.21
80851;BME280;70268;50.292;6.666;2023-07-13T01:28:58;96472.66;;;24.70;45.29
80851;BME280;70268;50.292;6.666;2023-07-13T01:31:26;96478.38;;;24.67;45.19
80851;BME280;70268;50.292;6.666;2023-07-13T01:33:55;96476.13;;;24.64;45.73
80851;BME280;70268;50.292;6.666;2023-07-13T01:36:24;96477.16;;;24.63;45.87
80851;BME280;70268;50.292;6.666;2023-07-13T01:38:54;96468.81;;;24.59;46.00
80851;BME280;70268;50.292;6.666;2023-07-13T01:41:23;96468.81;;;24.66;45.95
80851;BME280;70268;50.292;6.666;2023-07-13T01:43:53;96467.59;;;24.68;46.14
80851;BME280;70268;50.292;6.666;2023-07-13T01:46:21;96472.66;;;24.70;46.11
80851;BME280;70268;50.292;6.666;2023-07-13T01:48:51;96471.25;;;24.67;46.37
80851;BME280;70268;50.292;6.666;2023-07-13T01:51:19;96468.81;;;24.59;46.55
80851;BME280;70268;50.292;6.666;2023-07-13T01:53:49;96474.91;;;24.66;46.80
80851;BME280;70268;50.292;6.666;2023-07-13T01:56:19;96475.31;;;24.63;46.93
80851;BME280;70268;50.292;6.666;2023-07-13T01:58:48;96480.22;;;24.53;47.18
80851;BME280;70268;50.292;6.666;2023-07-13T02:01:16;96482.63;;;24.61;47.01
80851;BME280;70268;50.292;6.666;2023-07-13T02:03:46;96479.78;;;24.63;47.06
80851;BME280;70268;50.292;6.666;2023-07-13T02:06:14;96482.47;;;24.56;47.55
80851;BME280;70268;50.292;6.666;2023-07-13T02:08:43;96488.38;;;24.51;47.63
80851;BME280;70268;50.292;6.666;2023-07-13T02:11:12;96482.84;;;24.60;47.56
80851;BME280;70268;50.292;6.666;2023-07-13T02:13:41;96494.25;;;24.54;47.76
80851;BME280;70268;50.292;6.666;2023-07-13T02:16:10;96496.47;;;24.57;47.54
80851;BME280;70268;50.292;6.666;2023-07-13T02:18:39;96492.19;;;24.56;47.86
80851;BME280;70268;50.292;6.666;2023-07-13T02:21:08;96492.41;;;24.54;47.88
80851;BME280;70268;50.292;6.666;2023-07-13T02:23:36;96490.19;;;24.58;47.90
80851;BME280;70268;50.292;6.666;2023-07-13T02:26:05;96491.59;;;24.54;47.94
80851;BME280;70268;50.292;6.666;2023-07-13T02:28:33;96491.41;;;24.55;48.12
80851;BME280;70268;50.292;6.666;2023-07-13T02:31:07;96492.22;;;24.49;48.32
80851;BME280;70268;50.292;6.666;2023-07-13T02:33:36;96492.41;;;24.54;48.32
80851;BME280;70268;50.292;6.666;2023-07-13T02:36:05;96501.97;;;24.55;48.29
80851;BME280;70268;50.292;6.666;2023-07-13T02:38:34;96496.09;;;24.53;48.38
80851;BME280;70268;50.292;6.666;2023-07-13T02:41:03;96501.16;;;24.55;48.35
80851;BME280;70268;50.292;6.666;2023-07-13T02:43:32;96497.91;;;24.59;48.45
80851;BME280;70268;50.292;6.666;2023-07-13T02:46:01;96502.56;;;24.57;48.28
80851;BME280;70268;50.292;6.666;2023-07-13T02:48:38;96496.69;;;24.55;48.39
80851;BME280;70268;50.292;6.666;2023-07-13T02:51:08;96500.34;;;24.54;48.85
80851;BME280;70268;50.292;6.666;2023-07-13T02:53:37;96498.75;;;24.53;48.60
80851;BME280;70268;50.292;6.666;2023-07-13T02:56:05;96508.28;;;24.47;48.82
80851;BME280;70268;50.292;6.666;2023-07-13T02:58:34;96493.66;;;24.45;48.95
80851;BME280;70268;50.292;6.666;2023-07-13T03:01:07;96499.34;;;24.48;48.75
80851;BME280;70268;50.292;6.666;2023-07-13T03:03:37;96504.00;;;24.46;48.80
80851;BME280;70268;50.292;6.666;2023-07-13T03:06:06;96491.41;;;24.42;49.32
80851;BME280;70268;50.292;6.666;2023-07-13T03:08:45;96491.00;;;24.45;49.18
80851;BME280;70268;50.292;6.666;2023-07-13T03:11:15;96492.84;;;24.44;49.12
80851;BME280;70268;50.292;6.666;2023-07-13T03:13:47;96501.56;;;24.45;49.76
80851;BME280;70268;50.292;6.666;2023-07-13T03:16:16;96495.09;;;24.41;49.18
80851;BME280;70268;50.292;6.666;2023-07-13T03:18:49;96502.00;;;24.42;49.31
80851;BME280;70268;50.292;6.666;2023-07-13T03:21:18;96504.63;;;24.42;49.26
80851;BME280;70268;50.292;6.666;2023-07-13T03:23:46;96500.53;;;24.52;48.99
80851;BME280;70268;50.292;6.666;2023-07-13T03:26:18;96500.56;;;24.46;49.23
80851;BME280;70268;50.292;6.666;2023-07-13T03:28:48;96504.63;;;24.42;49.33
80851;BME280;70268;50.292;6.666;2023-07-13T03:31:25;96504.63;;;24.42;49.19
80851;BME280;70268;50.292;6.666;2023-07-13T03:33:57;96510.53;;;24.44;49.32
80851;BME280;70268;50.292;6.666;2023-07-13T03:36:30;96512.34;;;24.43;49.32
80851;BME280;70268;50.292;6.666;2023-07-13T03:39:04;96514.19;;;24.43;49.43
80851;BME280;70268;50.292;6.666;2023-07-13T03:41:55;96508.09;;;24.49;49.16
80851;BME280;70268;50.292;6.666;2023-07-13T03:44:24;96518.06;;;24.40;49.36
80851;BME280;70268;50.292;6.666;2023-07-13T03:46:55;96516.44;;;24.46;49.47
80851;BME280;70268;50.292;6.666;2023-07-13T03:49:25;96515.63;;;24.39;49.59
80851;BME280;70268;50.292;6.666;2023-07-13T03:51:54;96521.91;;;24.44;49.42
80851;BME280;70268;50.292;6.666;2023-07-13T03:54:22;96525.59;;;24.37;49.54
80851;BME280;70268;50.292;6.666;2023-07-13T03:56:51;96519.47;;;24.43;49.26
80851;BME280;70268;50.292;6.666;2023-07-13T03:59:21;96519.09;;;24.39;49.67
80851;BME280;70268;50.292;6.666;2023-07-13T04:01:51;96521.53;;;24.41;49.92
80851;BME280;70268;50.292;6.666;2023-07-13T04:04:19;96522.34;;;24.34;49.86
80851;BME280;70268;50.292;6.666;2023-07-13T04:06:49;96513.59;;;24.41;49.74
80851;BME280;70268;50.292;6.666;2023-07-13T04:09:20;96515.41;;;24.47;49.54
80851;BME280;70268;50.292;6.666;2023-07-13T04:11:49;96514.00;;;24.44;49.56
80851;BME280;70268;50.292;6.666;2023-07-13T04:14:18;96510.75;;;24.42;49.71
80851;BME280;70268;50.292;6.666;2023-07-13T04:16:46;96519.88;;;24.46;50.01
80851;BME280;70268;50.292;6.666;2023-07-13T04:19:15;96515.00;;;24.37;48.15
80851;BME280;70268;50.292;6.666;2023-07-13T04:21:44;96516.66;;;24.24;48.86
80851;BME280;70268;50.292;6.666;2023-07-13T04:24:14;96523.75;;;24.24;47.55
80851;BME280;70268;50.292;6.666;2023-07-13T04:26:42;96519.66;;;24.48;46.87
80851;BME280;70268;50.292;6.666;2023-07-13T04:29:11;96523.13;;;24.48;46.83
80851;BME280;70268;50.292;6.666;2023-07-13T04:31:40;96523.34;;;24.40;46.92
80851;BME280;70268;50.292;6.666;2023-07-13T04:34:08;96526.00;;;24.33;46.77
80851;BME280;70268;50.292;6.666;2023-07-13T04:36:37;96528.63;;;24.20;46.90
80851;BME280;70268;50.292;6.666;2023-07-13T04:39:05;96535.34;;;24.29;46.31
80851;BME280;70268;50.292;6.666;2023-07-13T04:41:36;96533.28;;;24.18;46.34
80851;BME280;70268;50.292;6.666;2023-07-13T04:44:04;96538.19;;;24.21;45.89
80851;BME280;70268;50.292;6.666;2023-07-13T04:46:33;96534.50;;;24.15;45.81
80851;BME280;70268;50.292;6.666;2023-07-13T04:49:03;96534.09;;;24.19;45.63
80851;BME280;70268;50.292;6.666;2023-07-13T04:51:32;96533.28;;;24.18;45.52
80851;BME280;70268;50.292;6.666;2023-07-13T04:54:00;96536.97;;;24.24;45.16
80851;BME280;70268;50.292;6.666;2023-07-13T04:56:29;96531.28;;;24.20;45.42
80851;BME280;70268;50.292;6.666;2023-07-13T04:59:01;96531.06;;;24.22;45.00
80851;BME280;70268;50.292;6.666;2023-07-13T05:01:30;96534.13;;;24.32;45.03
80851;BME280;70268;50.292;6.666;2023-07-13T05:04:00;96539.81;;;24.22;45.34
80851;BME280;70268;50.292;6.666;2023-07-13T05:06:29;96543.06;;;24.31;45.07
80851;BME280;70268;50.292;6.666;2023-07-13T05:08:58;96536.34;;;24.22;45.23
80851;BME280;70268;50.292;6.666;2023-07-13T05:11:27;96545.88;;;24.09;45.40
80851;BME280;70268;50.292;6.666;2023-07-13T05:13:55;96542.84;;;24.32;45.12
80851;BME280;70268;50.292;6.666;2023-07-13T05:16:25;96541.44;;;24.30;45.16
80851;BME280;70268;50.292;6.666;2023-07-13T05:18:54;96549.16;;;24.31;45.23
80851;BME280;70268;50.292;6.666;2023-07-13T05:21:22;96552.59;;;24.25;45.02
80851;BME280;70268;50.292;6.666;2023-07-13T05:23:51;96553.63;;;24.31;45.18
80851;BME280;70268;50.292;6.666;2023-07-13T05:26:19;96553.44;;;24.39;44.90
80851;BME280;70268;50.292;6.666;2023-07-13T05:28:49;96549.56;;;24.35;45.02
80851;BME280;70268;50.292;6.666;2023-07-13T05:31:17;96550.16;;;24.37;45.12
80851;BME280;70268;50.292;6.666;2023-07-13T05:33:48;96550.34;;;24.15;45.57
80851;BME280;70268;50.292;6.666;2023-07-13T05:36:16;96552.19;;;24.28;45.43
80851;BME280;70268;50.292;6.666;2023-07-13T05:38:45;96555.44;;;24.24;45.11
80851;BME280;70268;50.292;6.666;2023-07-13T05:41:15;96554.63;;;24.16;45.75
80851;BME280;70268;50.292;6.666;2023-07-13T05:43:44;96560.56;;;24.32;45.46
80851;BME280;70268;50.292;6.666;2023-07-13T05:46:12;96552.59;;;24.39;45.61
80851;BME280;70268;50.292;6.666;2023-07-13T05:48:41;96560.34;;;24.40;45.32
80851;BME280;70268;50.292;6.666;2023-07-13T05:51:11;96565.44;;;24.35;45.67
80851;BME280;70268;50.292;6.666;2023-07-13T05:53:40;96565.22;;;24.43;45.48
80851;BME280;70268;50.292;6.666;2023-07-13T05:56:08;96565.44;;;24.48;45.63
80851;BME280;70268;50.292;6.666;2023-07-13T05:58:38;96567.44;;;24.46;45.39
80851;BME280;70268;50.292;6.666;2023-07-13T06:01:09;96566.84;;;24.44;45.39
80851;BME280;70268;50.292;6.666;2023-07-13T06:03:39;96573.34;;;24.42;45.40
80851;BME280;70268;50.292;6.666;2023-07-13T06:06:10;96565.22;;;24.43;44.80
80851;BME280;70268;50.292;6.666;2023-07-13T06:08:39;96568.88;;;24.42;44.68
80851;BME280;70268;50.292;6.666;2023-07-13T06:11:11;96565.81;;;24.25;44.93
80851;BME280;70268;50.292;6.666;2023-07-13T06:13:40;96567.06;;;24.43;44.87
80851;BME280;70268;50.292;6.666;2023-07-13T06:16:10;96568.47;;;24.32;45.30
80851;BME280;70268;50.292;6.666;2023-07-13T06:18:39;96570.91;;;24.40;44.90
80851;BME280;70268;50.292;6.666;2023-07-13T06:21:09;96576.34;;;24.19;45.38
80851;BME280;70268;50.292;6.666;2023-07-13T06:23:40;96577.56;;;24.09;45.79
80851;BME280;70268;50.292;6.666;2023-07-13T06:26:09;96576.00;;;24.22;45.65
80851;BME280;70268;50.292;6.666;2023-07-13T06:28:38;96575.13;;;24.14;45.94
80851;BME280;70268;50.292;6.666;2023-07-13T06:31:08;96585.53;;;24.29;45.79
80851;BME280;70268;50.292;6.666;2023-07-13T06:33:38;96590.22;;;24.34;45.40
80851;BME280;70268;50.292;6.666;2023-07-13T06:36:08;96581.91;;;24.30;45.47
80851;BME280;70268;50.292;6.666;2023-07-13T06:38:37;96579.84;;;24.26;45.67
80851;BME280;70268;50.292;6.666;2023-07-13T06:41:08;96588.72;;;23.91;46.36
80851;BME280;70268;50.292;6.666;2023-07-13T06:43:37;96600.09;;;24.05;45.00
80851;BME280;70268;50.292;6.666;2023-07-13T06:46:06;96593.38;;;24.03;44.06
80851;BME280;70268;50.292;6.666;2023-07-13T06:48:35;96590.47;;;23.64;44.35
80851;BME280;70268;50.292;6.666;2023-07-13T06:51:04;96592.59;;;23.95;43.90
80851;BME280;70268;50.292;6.666;2023-07-13T06:53:32;96596.03;;;23.89;44.48
80851;BME280;70268;50.292;6.666;2023-07-13T06:56:01;96586.34;;;24.23;43.82
80851;BME280;70268;50.292;6.666;2023-07-13T06:58:34;96584.53;;;24.30;44.03
80851;BME280;70268;50.292;6.666;2023-07-13T07:01:03;96593.56;;;23.74;44.62
80851;BME280;70268;50.292;6.666;2023-07-13T07:03:35;96597.25;;;23.93;44.69
80851;BME280;70268;50.292;6.666;2023-07-13T07:06:12;96582.25;;;24.14;44.84
80851;BME280;70268;50.292;6.666;2023-07-13T07:08:41;96583.09;;;24.21;44.64
80851;BME280;70268;50.292;6.666;2023-07-13T07:11:12;96591.84;;;24.28;44.77
80851;BME280;70268;50.292;6.666;2023-07-13T07:13:42;96592.88;;;24.27;44.78
80851;BME280;70268;50.292;6.666;2023-07-13T07:16:11;96594.28;;;24.23;44.92
80851;BME280;70268;50.292;6.666;2023-07-13T07:18:40;96593.88;;;24.33;44.86
80851;BME280;70268;50.292;6.666;2023-07-13T07:21:09;96599.34;;;24.31;44.93
80851;BME280;70268;50.292;6.666;2023-07-13T07:23:38;96599.78;;;24.42;44.71
80851;BME280;70268;50.292;6.666;2023-07-13T07:26:07;96599.34;;;24.25;45.16
80851;BME280;70268;50.292;6.666;2023-07-13T07:28:37;96598.75;;;24.43;44.58
80851;BME280;70268;50.292;6.666;2023-07-13T07:31:11;96597.13;;;24.28;44.55
80851;BME280;70268;50.292;6.666;2023-07-13T07:33:43;96595.91;;;24.31;43.34
80851;BME280;70268;50.292;6.666;2023-07-13T07:36:12;96608.66;;;24.07;42.71
80851;BME280;70268;50.292;6.666;2023-07-13T07:38:43;96608.00;;;23.92;42.55
80851;BME280;70268;50.292;6.666;2023-07-13T07:41:12;96607.03;;;24.06;42.85
80851;BME280;70268;50.292;6.666;2023-07-13T07:43:44;96602.94;;;23.97;42.62
80851;BME280;70268;50.292;6.666;2023-07-13T07:46:14;96608.78;;;23.86;42.57
80851;BME280;70268;50.292;6.666;2023-07-13T07:48:42;96606.59;;;23.89;42.66
80851;BME280;70268;50.292;6.666;2023-07-13T07:51:11;96609.84;;;23.98;42.35
80851;BME280;70268;50.292;6.666;2023-07-13T07:53:40;96606.19;;;23.92;42.10
80851;BME280;70268;50.292;6.666;2023-07-13T07:56:08;96610.63;;;23.78;42.32
80851;BME280;70268;50.292;6.666;2023-07-13T07:58:40;96620.50;;;23.63;42.51
80851;BME280;70268;50.292;6.666;2023-07-13T08:01:11;96610.19;;;23.68;42.16
80851;BME280;70268;50.292;6.666;2023-07-13T08:03:44;96617.72;;;23.71;41.56
80851;BME280;70268;50.292;6.666;2023-07-13T08:06:15;96613.03;;;23.67;42.04
80851;BME280;70268;50.292;6.666;2023-07-13T08:08:50;96606.75;;;23.74;41.49
80851;BME280;70268;50.292;6.666;2023-07-13T08:11:18;96606.34;;;23.77;41.47
80851;BME280;70268;50.292;6.666;2023-07-13T08:13:50;96607.59;;;23.81;41.26
80851;BME280;70268;50.292;6.666;2023-07-13T08:16:22;96613.88;;;23.87;41.25
80851;BME280;70268;50.292;6.666;2023-07-13T08:18:52;96613.06;;;23.87;41.07
80851;BME280;70268;50.292;6.666;2023-07-13T08:21:22;96615.13;;;23.91;41.55
80851;BME280;70268;50.292;6.666;2023-07-13T08:23:50;96610.38;;;23.73;41.50
80851;BME280;70268;50.292;6.666;2023-07-13T08:26:19;96607.75;;;23.67;41.36
80851;BME280;70268;50.292;6.666;2023-07-13T08:28:49;96606.31;;;23.64;41.41
80851;BME280;70268;50.292;6.666;2023-07-13T08:31:17;96604.03;;;23.54;41.71
80851;BME280;70268;50.292;6.666;2023-07-13T08:33:46;96605.75;;;23.82;41.13
80851;BME280;70268;50.292;6.666;2023-07-13T08:36:16;96609.63;;;23.99;40.82
80851;BME280;70268;50.292;6.666;2023-07-13T08:38:44;96615.13;;;23.98;40.97
80851;BME280;70268;50.292;6.666;2023-07-13T08:41:15;96615.97;;;24.05;40.85
80851;BME280;70268;50.292;6.666;2023-07-13T08:43:47;96597.69;;;24.10;40.70
80851;BME280;70268;50.292;6.666;2023-07-13T08:46:19;96602.78;;;24.19;40.97
80851;BME280;70268;50.292;6.666;2023-07-13T08:48:54;96596.25;;;24.14;41.22
80851;BME280;70268;50.292;6.666;2023-07-13T08:51:31;96601.63;;;24.41;41.33
80851;BME280;70268;50.292;6.666;2023-07-13T08:54:04;96606.28;;;24.52;41.10
80851;BME280;70268;50.292;6.666;2023-07-13T08:56:37;96600.16;;;24.59;41.24
80851;BME280;70268;50.292;6.666;2023-07-13T08:59:10;96610.56;;;24.67;41.36
80851;BME280;70268;50.292;6.666;2023-07-13T09:01:52;96609.34;;;24.56;42.11
80851;BME280;70268;50.292;6.666;2023-07-13T09:04:26;96607.72;;;24.68;41.92
80851;BME280;70268;50.292;6.666;2023-07-13T09:07:00;96617.28;;;24.56;42.16
80851;BME280;70268;50.292;6.666;2023-07-13T09:12:25;96617.88;;;24.85;42.39
80851;BME280;70268;50.292;6.666;2023-07-13T09:14:56;96614.22;;;24.73;42.34
80851;BME280;70268;50.292;6.666;2023-07-13T09:17:29;96611.34;;;24.54;41.41
80851;BME280;70268;50.292;6.666;2023-07-13T09:20:02;96605.88;;;24.42;41.09
80851;BME280;70268;50.292;6.666;2023-07-13T09:22:36;96600.59;;;24.36;41.27
80851;BME280;70268;50.292;6.666;2023-07-13T09:25:18;96600.78;;;24.34;41.19
80851;BME280;70268;50.292;6.666;2023-07-13T09:27:51;96609.34;;;24.36;41.03
80851;BME280;70268;50.292;6.666;2023-07-13T09:30:27;96606.91;;;24.34;40.68
80851;BME280;70268;50.292;6.666;2023-07-13T09:32:58;96612.19;;;24.34;40.97
80851;BME280;70268;50.292;6.666;2023-07-13T09:35:28;96617.28;;;24.36;40.56
80851;BME280;70268;50.292;6.666;2023-07-13T09:38:02;96615.59;;;24.28;40.64
80851;BME280;70268;50.292;6.666;2023-07-13T09:40:40;96615.81;;;24.27;40.48
80851;BME280;70268;50.292;6.666;2023-07-13T09:43:14;96606.69;;;24.23;40.54
80851;BME280;70268;50.292;6.666;2023-07-13T09:45:46;96603.84;;;24.31;40.52
80851;BME280;70268;50.292;6.666;2023-07-13T09:48:16;96599.56;;;24.30;40.56
80851;BME280;70268;50.292;6.666;2023-07-13T09:50:45;96610.16;;;24.37;39.97
80851;BME280;70268;50.292;6.666;2023-07-13T09:53:17;96609.16;;;24.38;40.24
80851;BME280;70268;50.292;6.666;2023-07-13T09:55:47;96622.94;;;24.33;40.32
80851;BME280;70268;50.292;6.666;2023-07-13T09:58:21;96610.75;;;24.39;40.02
80851;BME280;70268;50.292;6.666;2023-07-13T10:00:56;96603.22;;;24.36;40.01
80851;BME280;70268;50.292;6.666;2023-07-13T10:03:27;96600.19;;;24.32;40.25
80851;BME280;70268;50.292;6.666;2023-07-13T10:06:09;96608.53;;;24.29;40.37
80851;BME280;70268;50.292;6.666;2023-07-13T10:08:40;96608.50;;;24.22;39.96
80851;BME280;70268;50.292;6.666;2023-07-13T10:11:20;96605.44;;;24.25;40.11
80851;BME280;70268;50.292;6.666;2023-07-13T10:13:54;96614.75;;;24.14;40.42
80851;BME280;70268;50.292;6.666;2023-07-13T10:16:25;96618.22;;;24.15;40.47
80851;BME280;70268;50.292;6.666;2023-07-13T10:18:57;96616.34;;;24.02;40.08
80851;BME280;70268;50.292;6.666;2023-07-13T10:21:31;96618.56;;;23.92;40.50
80851;BME280;70268;50.292;6.666;2023-07-13T10:24:11;96611.22;;;23.74;39.86
80851;BME280;70268;50.292;6.666;2023-07-13T10:26:46;96613.63;;;23.69;39.89
80851;BME280;70268;50.292;6.666;2023-07-13T10:29:16;96627.63;;;23.62;40.02
80851;BME280;70268;50.292;6.666;2023-07-13T10:31:46;96620.28;;;23.58;39.69
80851;BME280;70268;50.292;6.666;2023-07-13T10:34:15;96634.50;;;23.57;39.95
80851;BME280;70268;50.292;6.666;2023-07-13T10:36:46;96639.41;;;23.67;40.52
80851;BME280;70268;50.292;6.666;2023-07-13T10:39:19;96633.56;;;23.78;41.36
80851;BME280;70268;50.292;6.666;2023-07-13T10:41:53;96621.94;;;23.72;40.69
80851;BME280;70268;50.292;6.666;2023-07-13T10:44:25;96626.44;;;23.72;40.03
80851;BME280;70268;50.292;6.666;2023-07-13T10:46:58;96627.06;;;23.74;40.77
80851;BME280;70268;50.292;6.666;2023-07-13T10:49:29;96631.56;;;23.80;41.10
80851;BME280;70268;50.292;6.666;2023-07-13T10:51:58;96631.16;;;23.83;41.40
80851;BME280;70268;50.292;6.666;2023-07-13T10:54:31;96630.94;;;23.85;41.81
80851;BME280;70268;50.292;6.666;2023-07-13T10:57:27;96637.44;;;23.89;41.66
80851;BME280;70268;50.292;6.666;2023-07-13T11:00:15;96639.88;;;23.90;41.40
80851;BME280;70268;50.292;6.666;2023-07-13T11:02:56;96643.75;;;23.88;41.42
80851;BME280;70268;50.292;6.666;2023-07-13T11:05:28;96640.69;;;23.84;41.14
80851;BME280;70268;50.292;6.666;2023-07-13T11:08:04;96649.63;;;23.83;41.20
80851;BME280;70268;50.292;6.666;2023-07-13T11:10:49;96641.06;;;23.81;40.83
80851;BME280;70268;50.292;6.666;2023-07-13T11:13:55;96642.72;;;23.75;40.52
80851;BME280;70268;50.292;6.666;2023-07-13T11:16:43;96644.72;;;23.73;40.43
80851;BME280;70268;50.292;6.666;2023-07-13T11:19:40;96644.72;;;23.73;40.59
80851;BME280;70268;50.292;6.666;2023-07-13T11:22:24;96651.03;;;23.79;40.58
80851;BME280;70268;50.292;6.666;2023-07-13T11:25:01;96645.72;;;23.72;40.83
80851;BME280;70268;50.292;6.666;2023-07-13T11:27:41;96645.34;;;23.75;40.68
80851;BME280;70268;50.292;6.666;2023-07-13T11:30:32;96664.78;;;23.68;40.24
80851;BME280;70268;50.292;6.666;2023-07-13T11:33:09;96657.69;;;23.68;40.21
80851;BME280;70268;50.292;6.666;2023-07-13T11:38:26;96654.22;;;23.68;40.45
80851;BME280;70268;50.292;6.666;2023-07-13T11:40:58;96653.81;;;23.64;39.96
80851;BME280;70268;50.292;6.666;2023-07-13T11:43:31;96659.50;;;23.68;40.27
80851;BME280;70268;50.292;6.666;2023-07-13T11:46:18;96657.91;;;23.73;39.88
80851;BME280;70268;50.292;6.666;2023-07-13T11:48:49;96654.28;;;23.81;40.38
80851;BME280;70268;50.292;6.666;2023-07-13T11:51:22;96656.97;;;23.88;40.40
80851;BME280;70268;50.292;6.666;2023-07-13T11:53:53;96660.00;;;23.91;40.14
80851;BME280;70268;50.292;6.666;2023-07-13T11:56:25;96647.84;;;23.97;40.05
80851;BME280;70268;50.292;6.666;2023-07-13T11:58:57;96651.09;;;23.99;40.58
80851;BME280;70268;50.292;6.666;2023-07-13T12:01:27;96652.28;;;23.96;40.31
80851;BME280;70268;50.292;6.666;2023-07-13T12:04:00;96653.13;;;23.97;40.23
80851;BME280;70268;50.292;6.666;2023-07-13T12:06:31;96648.03;;;23.95;39.94
80851;BME280;70268;50.292;6.666;2023-07-13T12:09:03;96639.53;;;24.00;40.10
80851;BME280;70268;50.292;6.666;2023-07-13T12:11:40;96653.97;;;24.11;39.95
80851;BME280;70268;50.292;6.666;2023-07-13T12:14:15;96649.16;;;24.21;40.30
80851;BME280;70268;50.292;6.666;2023-07-13T12:16:45;96655.84;;;24.24;40.43
80851;BME280;70268;50.292;6.666;2023-07-13T12:19:18;96659.31;;;24.31;40.38
80851;BME280;70268;50.292;6.666;2023-07-13T12:21:49;96659.75;;;24.34;40.56
80851;BME280;70268;50.292;6.666;2023-07-13T12:24:20;96665.03;;;24.34;40.61
80851;BME280;70268;50.292;6.666;2023-07-13T12:26:51;96668.69;;;24.40;41.24
80851;BME280;70268;50.292;6.666;2023-07-13T12:29:22;96666.88;;;24.41;41.38
80851;BME280;70268;50.292;6.666;2023-07-13T12:31:51;96676.81;;;24.32;40.43
80851;BME280;70268;50.292;6.666;2023-07-13T12:34:23;96680.28;;;24.46;41.76
80851;BME280;70268;50.292;6.666;2023-07-13T12:36:53;96680.28;;;24.46;41.70
80851;BME280;70268;50.292;6.666;2023-07-13T12:39:24;96677.25;;;24.49;41.96
80851;BME280;70268;50.292;6.666;2023-07-13T12:41:54;96681.94;;;24.47;41.69
80851;BME280;70268;50.292;6.666;2023-07-13T12:44:40;96681.53;;;24.50;42.33
80851;BME280;70268;50.292;6.666;2023-07-13T12:47:13;96690.25;;;24.44;42.20
80851;BME280;70268;50.292;6.666;2023-07-13T12:49:48;96676.81;;;24.39;42.05
80851;BME280;70268;50.292;6.666;2023-07-13T12:52:20;96693.72;;;24.44;42.36
80851;BME280;70268;50.292;6.666;2023-07-13T12:54:53;96684.78;;;24.52;42.72
80851;BME280;70268;50.292;6.666;2023-07-13T12:57:38;96688.44;;;24.58;42.60
80851;BME280;70268;50.292;6.666;2023-07-13T13:00:21;96691.28;;;24.56;42.84
80851;BME280;70268;50.292;6.666;2023-07-13T13:02:53;96696.16;;;24.59;42.93
80851;BME280;70268;50.292;6.666;2023-07-13T13:05:43;96693.94;;;24.63;43.06
80851;BME280;70268;50.292;6.666;2023-07-13T13:08:12;96683.16;;;24.64;43.08
80851;BME280;70268;50.292;6.666;2023-07-13T13:10:41;96689.66;;;24.68;42.96
80851;BME280;70268;50.292;6.666;2023-07-13T13:13:10;96692.31;;;24.68;42.83
80851;BME280;70268;50.292;6.666;2023-07-13T13:15:40;96680.53;;;24.71;43.08
80851;BME280;70268;50.292;6.666;2023-07-13T13:18:15;96680.13;;;24.74;43.16
80851;BME280;70268;50.292;6.666;2023-07-13T13:20:45;96673.59;;;24.77;43.20
80851;BME280;70268;50.292;6.666;2023-07-13T13:23:15;96681.53;;;24.77;43.18
80851;BME280;70268;50.292;6.666;2023-07-13T13:25:46;96692.72;;;24.79;43.04
80851;BME280;70268;50.292;6.666;2023-07-13T13:28:16;96684.38;;;24.82;43.20